createdAt,value
2022-10-23T00:00:24.131Z,441.35
2022-10-23T00:10:37.487Z,441.35
2022-10-23T00:16:09.326Z,441.70
2022-10-23T00:27:13.120Z,441.87
2022-10-23T00:32:51.073Z,441.87
2022-10-23T00:38:23.159Z,441.87
2022-10-23T00:44:01.143Z,441.87
2022-10-23T00:49:34.453Z,441.70
2022-10-23T00:55:04.727Z,441.70
2022-10-23T01:00:42.334Z,441.70
2022-10-23T01:06:13.897Z,442.05
2022-10-23T01:11:51.647Z,442.74
2022-10-23T01:17:23.337Z,443.35
2022-10-23T01:22:55.207Z,443.35
2022-10-23T01:28:32.909Z,443.70
2022-10-23T01:34:04.696Z,443.87
2022-10-23T01:39:42.188Z,443.70
2022-10-23T01:45:14.175Z,443.70
2022-10-23T01:50:51.653Z,443.87
2022-10-23T01:56:23.258Z,444.39
2022-10-23T02:01:54.654Z,444.74
2022-10-23T02:07:27.773Z,445.43
2022-10-23T02:13:00.336Z,445.96
2022-10-23T02:18:33.271Z,446.48
2022-10-23T02:24:04.534Z,447.78
2022-10-23T02:29:42.027Z,448.65
2022-10-23T02:35:13.933Z,449.35
2022-10-23T02:43:06.079Z,448.65
2022-10-23T02:48:37.589Z,448.83
2022-10-23T02:59:41.212Z,449.35
2022-10-23T03:05:13.197Z,449.87
2022-10-23T03:10:44.903Z,450.04
2022-10-23T03:16:16.615Z,450.04
2022-10-23T03:21:54.317Z,450.39
2022-10-23T03:27:26.234Z,450.74
2022-10-23T03:32:57.846Z,451.26
2022-10-23T03:38:29.734Z,451.52
2022-10-23T03:44:01.563Z,451.09
2022-10-23T03:49:33.508Z,450.91
2022-10-23T03:55:05.178Z,450.56
2022-10-23T04:00:36.910Z,450.74
2022-10-23T04:06:08.894Z,450.91
2022-10-23T04:11:41.408Z,451.26
2022-10-23T04:17:13.433Z,451.35
2022-10-23T04:22:45.668Z,451.26
2022-10-23T04:28:17.024Z,451.69
2022-10-23T04:33:48.837Z,451.69
2022-10-23T04:39:20.517Z,451.35
2022-10-23T04:44:52.427Z,451.52
2022-10-23T04:50:24.139Z,451.52
2022-10-23T04:55:55.908Z,451.87
2022-10-23T05:01:27.770Z,452.39
2022-10-23T05:06:59.761Z,453.09
2022-10-23T05:12:31.464Z,453.78
2022-10-23T05:18:03.176Z,453.96
2022-10-23T05:23:34.924Z,454.30
2022-10-23T05:29:06.534Z,454.65
2022-10-23T05:34:38.380Z,454.65
2022-10-23T05:40:10.224Z,455.17
2022-10-23T05:45:41.983Z,454.48
2022-10-23T05:51:14.493Z,454.30
2022-10-23T05:56:46.429Z,453.96
2022-10-23T06:02:18.137Z,454.30
2022-10-23T06:07:49.955Z,454.30
2022-10-23T06:13:21.807Z,453.96
2022-10-23T06:18:53.246Z,453.78
2022-10-23T06:24:25.288Z,453.43
2022-10-23T06:29:56.945Z,453.43
2022-10-23T06:35:28.836Z,453.61
2022-10-23T06:41:00.510Z,453.61
2022-10-23T06:46:32.194Z,453.78
2022-10-23T06:52:04.281Z,453.61
2022-10-23T06:57:36.103Z,453.61
2022-10-23T07:03:07.813Z,453.61
2022-10-23T07:14:12.187Z,452.91
2022-10-23T07:19:44.244Z,452.91
2022-10-23T07:25:15.982Z,453.61
2022-10-23T07:30:47.823Z,454.65
2022-10-23T07:36:19.879Z,454.83
2022-10-23T07:41:51.677Z,454.48
2022-10-23T07:47:23.573Z,453.78
2022-10-23T07:52:55.234Z,453.43
2022-10-23T07:58:27.181Z,453.78
2022-10-23T08:03:58.892Z,454.13
2022-10-23T08:09:30.847Z,455.00
2022-10-23T08:15:02.599Z,455.00
2022-10-23T08:20:34.406Z,455.52
2022-10-23T08:26:06.227Z,455.52
2022-10-23T08:31:38.237Z,455.70
2022-10-23T08:37:10.081Z,455.70
2022-10-23T08:42:42.194Z,456.13
2022-10-23T08:48:13.558Z,455.96
2022-10-23T08:53:45.453Z,456.30
2022-10-23T08:59:17.883Z,456.48
2022-10-23T09:04:49.829Z,457.17
2022-10-23T09:10:21.732Z,457.70
2022-10-23T09:15:53.455Z,458.39
2022-10-23T09:21:25.100Z,459.26
2022-10-23T09:26:57.005Z,459.44
2022-10-23T09:32:28.775Z,459.96
2022-10-23T09:38:00.333Z,459.79
2022-10-23T09:43:32.255Z,459.96
2022-10-23T09:49:05.779Z,460.13
2022-10-23T09:54:36.100Z,461.44
2022-10-23T10:00:09.400Z,461.79
2022-10-23T10:08:01.368Z,463.70
2022-10-23T10:13:32.243Z,463.53
2022-10-23T10:19:03.183Z,463.88
2022-10-23T10:24:34.788Z,463.70
2022-10-23T10:30:06.576Z,463.53
2022-10-23T10:35:38.485Z,464.23
2022-10-23T10:41:10.349Z,464.40
2022-10-23T10:46:44.106Z,465.01
2022-10-23T10:52:15.770Z,465.53
2022-10-23T10:57:47.572Z,466.58
2022-10-23T11:03:19.303Z,467.45
2022-10-23T11:08:58.152Z,467.97
2022-10-23T11:19:55.071Z,469.10
2022-10-23T11:25:27.008Z,469.62
2022-10-23T11:31:00.414Z,470.32
2022-10-23T11:36:32.306Z,471.02
2022-10-23T12:04:29.239Z,473.20
2022-10-23T12:06:52.265Z,474.07
2022-10-23T12:23:32.992Z,474.59
2022-10-23T12:45:55.506Z,476.68
2022-10-23T12:51:27.378Z,477.73
2022-10-23T12:56:59.100Z,477.56
2022-10-23T13:02:32.702Z,477.99
2022-10-23T13:08:04.389Z,478.17
2022-10-23T13:13:36.540Z,478.69
2022-10-23T13:27:06.888Z,479.74
2022-10-23T13:32:38.543Z,479.91
2022-10-23T13:43:42.070Z,480.96
2022-10-23T13:54:45.783Z,481.65
2022-10-23T14:00:17.569Z,481.30
2022-10-23T14:16:55.409Z,481.30
2022-10-23T14:22:27.103Z,481.48
2022-10-23T14:27:58.958Z,481.83
2022-10-23T14:33:30.726Z,481.92
2022-10-23T14:39:05.457Z,482.44
2022-10-23T14:44:43.187Z,482.61
2022-10-23T14:50:15.218Z,482.61
2022-10-23T14:55:46.718Z,482.96
2022-10-23T15:01:18.825Z,483.14
2022-10-23T15:06:50.551Z,483.83
2022-10-23T15:12:22.197Z,484.01
2022-10-23T15:17:53.779Z,484.18
2022-10-23T15:23:25.533Z,484.36
2022-10-23T15:28:57.470Z,484.71
2022-10-23T15:34:29.010Z,485.06
2022-10-23T15:40:02.346Z,485.41
2022-10-23T15:51:06.842Z,485.93
2022-10-23T15:56:38.702Z,486.45
2022-10-23T16:02:10.475Z,486.54
2022-10-23T16:07:41.994Z,486.45
2022-10-23T16:15:36.354Z,487.41
2022-10-23T16:21:07.678Z,487.41
2022-10-23T16:26:39.423Z,487.41
2022-10-23T16:34:32.984Z,487.59
2022-10-23T16:40:04.907Z,487.76
2022-10-23T16:45:37.804Z,488.11
2022-10-23T17:01:22.010Z,486.71
2022-10-23T17:09:14.849Z,487.41
2022-10-23T17:14:46.519Z,487.24
2022-10-23T17:22:40.343Z,485.06
2022-10-23T17:28:11.965Z,484.71
2022-10-23T17:39:13.152Z,483.14
2022-10-23T17:44:44.988Z,482.96
2022-10-23T17:50:16.381Z,482.61
2022-10-23T17:55:48.187Z,484.36
2022-10-23T18:01:20.231Z,482.44
2022-10-23T18:06:51.809Z,482.79
2022-10-23T18:17:53.115Z,482.09
2022-10-23T18:23:24.864Z,481.65
2022-10-23T18:28:56.490Z,482.09
2022-10-23T18:34:28.091Z,482.44
2022-10-23T18:39:59.721Z,482.09
2022-10-23T18:45:31.522Z,482.61
2022-10-23T18:51:03.238Z,482.44
2022-10-23T18:56:35.080Z,482.96
2022-10-23T19:02:07.035Z,482.44
2022-10-23T19:07:38.453Z,482.44
2022-10-23T19:13:10.386Z,482.26
2022-10-23T19:18:42.001Z,482.26
2022-10-23T19:24:13.764Z,482.09
2022-10-23T19:29:47.576Z,481.83
2022-10-23T19:43:10.098Z,480.78
2022-10-23T19:48:41.945Z,481.30
2022-10-23T19:54:13.693Z,481.48
2022-10-23T19:59:45.050Z,481.30
2022-10-23T20:05:16.930Z,480.96
2022-10-23T20:13:26.613Z,481.83
2022-10-23T20:18:42.322Z,481.92
2022-10-23T20:24:13.778Z,481.65
2022-10-23T20:29:45.651Z,481.48
2022-10-23T20:35:17.470Z,480.26
2022-10-23T20:40:48.950Z,478.17
2022-10-23T20:46:20.569Z,476.86
2022-10-23T20:51:54.916Z,475.29
2022-10-23T20:57:23.794Z,473.37
2022-10-23T21:02:56.063Z,470.84
2022-10-23T21:08:27.497Z,469.45
2022-10-23T21:13:59.245Z,468.93
2022-10-23T21:19:30.941Z,468.14
2022-10-23T21:25:02.836Z,467.97
2022-10-23T21:30:34.667Z,467.97
2022-10-23T21:36:13.410Z,467.45
2022-10-23T21:41:38.110Z,467.27
2022-10-23T21:47:09.983Z,466.40
2022-10-23T21:52:41.864Z,465.71
2022-10-23T21:58:13.561Z,464.75
2022-10-23T22:03:45.393Z,464.23
2022-10-23T22:09:17.141Z,463.18
2022-10-23T22:14:49.402Z,462.14
2022-10-23T22:20:21.268Z,460.74
2022-10-23T22:25:55.376Z,459.96
2022-10-23T22:31:27.091Z,458.92
2022-10-23T22:36:59.011Z,458.22
2022-10-23T22:50:19.686Z,456.13
2022-10-23T22:55:51.233Z,455.70
2022-10-23T23:06:52.082Z,455.78
2022-10-23T23:12:23.887Z,455.52
2022-10-23T23:17:55.773Z,455.96
2022-10-23T23:31:17.365Z,455.00
2022-10-23T23:36:49.151Z,455.52
2022-10-23T23:42:20.921Z,455.78
2022-10-23T23:47:52.732Z,455.70
2022-10-23T23:53:24.504Z,455.35
2022-10-23T23:58:56.347Z,455.00
